Terminal Aerodrome Forecast
Issued by NWS Grand Forks, ND

Home | Current Version | Previous Version | Text Only | Print | Product List | Glossary On
Versions: 1 2 3 4 5 6 7 8 9 10 11 12 13 14 15 16 17 18
000
FTUS43 KFGF 231700
TAFFAR
TAF
KFAR 231722Z 2318/2418 17014G21KT P6SM SCT070
     FM232000 16015G22KT P6SM BKN070
     FM240000 16013KT P6SM VCSH BKN035
     FM240500 16011KT P6SM BKN025=

USA.gov is the U.S. government's official web portal to all federal, state and local government web resources and services.